• Join FlightAware (Why Join?)
  • Login
  • US Flag 
05:53PM EDT


 

Airport Tracker/Info


-or-


 

Live Flight TrackerFlight Track Log ✈ N6519N ✈ 12-Jun-2013 ✈ KFAR - KHAO

Flight Track Log - Related Links

Times and Time Zones

All times are in EDT time to prevent confusion due to time zone crossing. See the N6519N flight status page for this flight to view local times or setup timezone preferences in your user account.

Time Position Orientation Groundspeed Altitude Reporting Facility
EDT Latitude Longitude Course Direction KTS MPH feet Rate Location/Type
04:28PM 46.9706 -96.8861 214° Southwest 126 145 2,500  Level Minneapolis Center
04:29PM 46.9517 -96.9361 241° Southwest 142 163 3,200 600 Climbing Minneapolis Center
04:30PM 46.9206 -96.9811 225° Southwest 155 178 3,800 360 Climbing Minneapolis Center
04:31PM 46.8861 -97.0194 217° Southwest 163 188 4,000 240 Climbing Minneapolis Center
04:32PM 46.6962 -97.1224 226° Southwest  Level FlightAware Approximate
04:32PM 46.8472 -97.0683 221° Southwest 177 204 4,300  Level Minneapolis Center
04:33PM 46.6587 -97.1747 214° Southwest  Level FlightAware Approximate
04:33PM 46.8158 -97.1208 229° Southwest 165 190 4,900  Level Minneapolis Center
04:34PM 46.7828 -97.1661 223° Southwest 159 183 5,600 660 Climbing Minneapolis Center
04:35PM 46.7506 -97.2106 223° Southwest 154 177 6,300 600 Climbing Minneapolis Center
04:36PM 46.7164 -97.2539 221° Southwest 155 178 6,900 600 Climbing Minneapolis Center
04:37PM 46.6792 -97.2972 219° Southwest 164 189 7,600 660 Climbing Minneapolis Center
04:38PM 46.6436 -97.3422 221° Southwest 162 186 8,300 600 Climbing Minneapolis Center
04:39PM 46.6014 -97.3614 197° South 173 199 8,900 600 Climbing Minneapolis Center
04:40PM 46.5525 -97.3669 184° South 171 197 9,600 720 Climbing Minneapolis Center
04:41PM 46.5042 -97.3800 191° South 168 193 10,400 720 Climbing Minneapolis Center
04:42PM 46.4564 -97.3933 191° South 167 192 11,200 720 Climbing Minneapolis Center
04:43PM 46.4089 -97.4044 189° South 166 191 11,900 360 Climbing Minneapolis Center
04:44PM 46.3564 -97.4178 190° South 183 211 12,000  Climbing Minneapolis Center
04:45PM 46.3042 -97.4331 191° South 184 212 12,000  Level Minneapolis Center
04:46PM 46.2567 -97.4431 188° South 180 207 12,000  Level Minneapolis Center
04:47PM 46.2056 -97.4558 190° South 179 206 12,000  Level Minneapolis Center
04:48PM 46.1539 -97.4703 191° South 181 208 12,000  Level Minneapolis Center
04:49PM 46.1025 -97.4800 187° South 177 204 12,100  Climbing Minneapolis Center
04:50PM 46.0553 -97.4917 190° South 173 199 12,100  Level Minneapolis Center
04:51PM 46.0067 -97.5078 193° South 176 203 12,100 -60 Level Minneapolis Center
04:52PM 45.9581 -97.5161 187° South 177 204 12,000 -60 Descending Minneapolis Center
04:53PM 45.9100 -97.5283 190° South 176 203 12,000  Level Minneapolis Center
04:54PM 45.8542 -97.5417 189° South 174 200 12,000  Level Minneapolis Center
04:55PM 45.8067 -97.5539 190° South 175 201 12,000  Level Minneapolis Center
04:56PM 45.7586 -97.5656 190° South 175 201 12,000  Level Minneapolis Center
04:58PM 45.7106 -97.5767 189° South 175 201 12,000  Level Minneapolis Center
04:59PM 45.6625 -97.5881 189° South 176 203 12,000  Level Minneapolis Center
05:00PM 45.6136 -97.6008 190° South 178 205 12,000 -60 Level Minneapolis Center
05:01PM 45.5575 -97.6144 190° South 173 199 11,900 -60 Descending Minneapolis Center
05:02PM 45.5097 -97.6247 189° South 174 200 11,900  Level Minneapolis Center
05:03PM 45.4622 -97.6386 192° South 175 201 11,900  Level Minneapolis Center
05:04PM 45.4056 -97.6514 189° South 173 199 11,900  Level Minneapolis Center
05:05PM 45.3572 -97.6550 183° South 174 200 11,900  Level Minneapolis Center
05:06PM 45.3122 -97.6239 154° Southeast 179 206 11,900  Level Minneapolis Center
05:07PM 45.2667 -97.5961 157° South 179 206 11,900  Level Minneapolis Center
05:08PM 45.2197 -97.5728 161° South 178 205 11,900  Level Minneapolis Center
05:09PM 45.1744 -97.5486 159° South 177 204 11,900 240 Level Minneapolis Center
05:10PM 45.1181 -97.5197 160° South 179 206 12,500 660 Climbing Minneapolis Center
05:11PM 45.0747 -97.4961 159° South 173 199 13,300 660 Climbing Minneapolis Center
05:12PM 45.0314 -97.4733 160° South 168 193 13,900 540 Climbing Minneapolis Center
05:13PM 44.9867 -97.4514 161° South 169 194 14,500 480 Climbing Minneapolis Center
05:14PM 44.9439 -97.4294 160° South 166 191 14,900 180 Climbing Minneapolis Center
05:15PM 44.8947 -97.4047 160° South 178 205 14,900  Level Minneapolis Center
05:16PM 44.8378 -97.3747 160° South 183 211 14,900  Level Minneapolis Center
05:17PM 44.7914 -97.3506 160° South 179 206 14,900  Level Minneapolis Center
05:18PM 44.7456 -97.3283 161° South 176 203 14,900  Level Minneapolis Center
05:19PM 44.6983 -97.3056 161° South 178 205 14,900  Level Minneapolis Center
05:20PM 44.6519 -97.2803 159° South 179 206 14,900  Level Minneapolis Center
05:21PM 44.5964 -97.2531 161° South 177 204 14,900  Level Minneapolis Center
05:22PM 44.5508 -97.2297 160° South 176 203 14,900  Level Minneapolis Center
05:23PM 44.5050 -97.2061 160° South 176 203 14,900  Level Minneapolis Center
05:24PM 44.4581 -97.1828 160° South 178 205 14,900  Level Minneapolis Center
05:26PM 44.4108 -97.1594 161° South 179 206 14,900  Level Minneapolis Center
05:27PM 44.3650 -97.1356 160° South 178 205 14,900  Level Minneapolis Center
05:28PM 44.3086 -97.1067 160° South 179 206 14,900  Level Minneapolis Center
05:29PM 44.2631 -97.0836 160° South 177 204 14,900  Level Minneapolis Center
05:30PM 44.2153 -97.0611 161° South 179 206 14,900  Level Minneapolis Center
05:31PM 44.1694 -97.0336 157° South 180 207 14,900  Level Minneapolis Center
05:32PM 44.1250 -97.0011 152° Southeast 180 207 14,900  Level Minneapolis Center
05:33PM 44.0711 -96.9619 152° Southeast 182 209 14,900  Level Minneapolis Center
05:34PM 44.0258 -96.9294 153° Southeast 184 212 14,900  Level Minneapolis Center
05:35PM 43.9808 -96.8958 152° Southeast 184 212 14,900  Level Minneapolis Center
05:36PM 43.9350 -96.8625 152° Southeast 185 213 14,900  Level Minneapolis Center
05:37PM 43.8900 -96.8281 151° Southeast 186 214 14,900  Level Minneapolis Center
05:38PM 43.8347 -96.7875 152° Southeast 187 215 14,900  Level Minneapolis Center
05:39PM 43.7883 -96.7556 154° Southeast 187 215 14,900  Level Minneapolis Center
05:40PM 43.7422 -96.7233 153° Southeast 187 215 14,900  Level Minneapolis Center
05:41PM 43.6958 -96.6911 153° Southeast 187 215 14,900  Level Minneapolis Center
05:42PM 43.6608 -96.6431 135° Southeast 185 213 14,900  Level Minneapolis Center
05:43PM 43.6464 -96.5725 106° East 192 221 14,900  Level Minneapolis Center
05:44PM 43.6250 -96.4917 110° East 189 217 14,900  Level Minneapolis Center
05:45PM 43.6056 -96.4247 112° Southeast 188 216 14,900  Level Minneapolis Center
05:46PM 43.5833 -96.3575 115° Southeast 192 221 14,900  Level Minneapolis Center
05:47PM 43.5656 -96.2886 110° East 192 221 14,900  Level Minneapolis Center
05:48PM 43.5483 -96.2181 109° East 195 224 14,900  Level Minneapolis Center
05:49PM 43.5242 -96.1356 112° Southeast 195 224 14,900  Level Minneapolis Center
05:50PM 43.5039 -96.0661 112° Southeast 195 224 14,900  Level Minneapolis Center
05:51PM 43.4853 -95.9972 110° East 195 224 14,900  Level Minneapolis Center
05:52PM 43.4633 -95.9264 113° Southeast 198 228 14,900  Level Minneapolis Center
05:53PM 43.4444 -95.8550 110° East 199 229 14,900  Level Minneapolis Center
05:54PM 43.4239 -95.7864 112° Southeast 198 228 14,900  Level Minneapolis Center
05:56PM 43.3997 -95.7028 112° Southeast 198 228 15,000  Climbing Minneapolis Center
05:57PM 43.3797 -95.6344 112° Southeast 195 224 14,900  Descending Minneapolis Center
05:58PM 43.3589 -95.5650 112° Southeast 195 224 15,000  Climbing Minneapolis Center
05:59PM 43.3381 -95.4956 112° Southeast 199 229 15,000 -60 Level Minneapolis Center
06:00PM 43.3181 -95.4233 111° Southeast 200 230 14,900  Descending Minneapolis Center
06:01PM 43.2956 -95.3547 114° Southeast 199 229 15,000 -120 Climbing Minneapolis Center
06:02PM 43.2719 -95.2717 111° Southeast 196 226 14,700 -180 Descending Minneapolis Center
06:03PM 43.2514 -95.2006 112° Southeast 198 228 14,700  Level Minneapolis Center
06:04PM 43.2300 -95.1314 113° Southeast 199 229 14,700  Level Minneapolis Center
06:05PM 43.2089 -95.0619 113° Southeast 199 229 14,700  Level Minneapolis Center
06:06PM 43.1886 -94.9931 112° Southeast 197 227 14,700 120 Level Minneapolis Center
06:07PM 43.1681 -94.9247 112° Southeast 196 226 15,000 120 Climbing Minneapolis Center
06:08PM 43.1425 -94.8378 112° Southeast 202 232 15,000  Level Minneapolis Center
06:09PM 43.1203 -94.7656 113° Southeast 205 236 15,000  Level Minneapolis Center
06:10PM 43.1000 -94.6969 112° Southeast 200 230 15,000  Level Minneapolis Center
06:11PM 43.0772 -94.6286 115° Southeast 199 229 15,000  Level Minneapolis Center
06:12PM 43.0572 -94.5583 111° Southeast 198 228 15,000  Level Minneapolis Center
06:13PM 43.0353 -94.4878 113° Southeast 201 231 15,000  Level Minneapolis Center
06:14PM 43.0089 -94.4014 113° Southeast 205 236 15,000  Level Minneapolis Center
06:15PM 42.9911 -94.3400 112° Southeast 204 235 15,000  Level Minneapolis Center
06:16PM 42.9644 -94.2561 113° Southeast 202 232 15,000  Level Minneapolis Center
06:17PM 42.9414 -94.1847 114° Southeast 206 237 15,000  Level Minneapolis Center
06:18PM 42.9206 -94.1131 112° Southeast 206 237 15,000  Level Minneapolis Center
06:19PM 42.8972 -94.0422 114° Southeast 205 236 15,000  Level Minneapolis Center
06:20PM 42.8753 -93.9714 113° Southeast 206 237 15,000  Level Minneapolis Center
06:21PM 42.8492 -93.8847 112° Southeast 208 239 15,000  Level Minneapolis Center
06:22PM 42.8264 -93.8125 113° Southeast 209 241 15,000  Level Minneapolis Center
06:23PM 42.8050 -93.7422 113° Southeast 204 235 15,000  Level Minneapolis Center
06:24PM 42.7806 -93.6697 115° Southeast 210 242 15,000  Level Minneapolis Center
06:25PM 42.7583 -93.5975 113° Southeast 210 242 15,000  Level Minneapolis Center
06:27PM 42.7303 -93.5092 113° Southeast 212 244 15,000 -60 Level Minneapolis Center
06:28PM 42.7086 -93.4392 113° Southeast 205 236 14,900  Descending Minneapolis Center
06:29PM 42.6853 -93.3694 114° Southeast 205 236 15,000  Climbing Minneapolis Center
06:30PM 42.6617 -93.2964 114° Southeast 209 241 15,000  Level Minneapolis Center
06:31PM 42.6356 -93.2111 113° Southeast 207 238 15,000 -60 Level Minneapolis Center
06:32PM 42.6122 -93.1433 115° Southeast 201 231 14,900 -60 Descending Minneapolis Center
06:33PM 42.5897 -93.0703 113° Southeast 208 239 14,900 60 Level Minneapolis Center
06:33PM 42.5797 -93.0403 114° Southeast 210 242 15,000 60 Climbing Chicago Center
06:34PM 42.5558 -92.9697 115° Southeast 209 241 15,000  Level Chicago Center
06:35PM 42.5333 -92.8989 113° Southeast 207 238 15,000  Level Chicago Center
06:36PM 42.5111 -92.8286 113° Southeast 206 237 15,000 -60 Level Chicago Center
06:37PM 42.4883 -92.7572 113° Southeast 207 238 14,900 -60 Descending Chicago Center
06:38PM 42.4642 -92.6858 115° Southeast 209 241 14,900 -60 Level Chicago Center
06:39PM 42.4369 -92.6019 114° Southeast 207 238 14,800  Descending Chicago Center
06:40PM 42.4150 -92.5322 113° Southeast 204 235 14,900  Climbing Chicago Center
06:41PM 42.3917 -92.4642 115° Southeast 201 231 14,900  Level Chicago Center
06:42PM 42.3683 -92.3972 115° Southeast 200 230 14,900  Level Chicago Center
06:43PM 42.3450 -92.3242 113° Southeast 209 241 14,900  Level Chicago Center
06:44PM 42.3222 -92.2536 114° Southeast 208 239 14,900  Level Chicago Center
06:45PM 42.2917 -92.1728 117° Southeast 206 237 14,900 -60 Level Chicago Center
06:46PM 42.2617 -92.1044 121° Southeast 214 246 14,800  Descending Chicago Center
06:47PM 42.2444 -92.0297 107° East 213 245 14,900  Climbing Chicago Center
06:48PM 42.2256 -91.9558 109° East 213 245 14,800  Descending Chicago Center
06:49PM 42.2014 -91.8911 117° Southeast 202 232 14,900  Climbing Chicago Center
06:50PM 42.1767 -91.8228 116° Southeast 203 234 14,900  Level Chicago Center
06:51PM 42.1486 -91.7367 114° Southeast 209 241 14,900  Level Chicago Center
06:53PM 42.1256 -91.6658 114° Southeast 210 242 14,900  Level Chicago Center
06:54PM 42.1025 -91.5992 115° Southeast 202 232 14,900  Level Chicago Center
06:55PM 42.0783 -91.5283 115° Southeast 209 241 14,900  Level Chicago Center
06:56PM 42.0536 -91.4583 115° Southeast 211 243 14,900  Level Chicago Center
06:57PM 42.0297 -91.3875 114° Southeast 210 242 14,900  Level Chicago Center
06:58PM 42.0008 -91.3036 115° Southeast 209 241 14,900  Level Chicago Center
06:59PM 41.9778 -91.2364 115° Southeast 202 232 14,900  Level Chicago Center
07:00PM 41.9536 -91.1686 116° Southeast 204 235 14,900  Level Chicago Center
07:01PM 41.9306 -91.1019 115° Southeast 200 230 14,900 -60 Level Chicago Center
07:02PM 41.9064 -91.0325 115° Southeast 205 236 14,800  Descending Chicago Center
07:03PM 41.8839 -90.9694 116° Southeast 195 224 14,900  Climbing Chicago Center
07:04PM 41.8611 -90.9050 115° Southeast 193 222 14,900  Level Chicago Center
07:05PM 41.8339 -90.8242 114° Southeast 199 229 14,900  Level Chicago Center
07:06PM 41.8119 -90.7606 115° Southeast 193 222 14,900  Level Chicago Center
07:08PM 41.7653 -90.6297 116° Southeast 196 226 14,900  Level Chicago Center
07:09PM 41.7403 -90.5600 116° Southeast 196 226 14,900  Level Chicago Center
07:10PM 41.7175 -90.4942 115° Southeast 195 224 14,900  Level Chicago Center
07:11PM 41.6933 -90.4278 116° Southeast 198 228 14,900  Level Chicago Center
07:12PM 41.6700 -90.3622 115° Southeast 196 226 14,900  Level Chicago Center
07:13PM 41.6472 -90.2953 114° Southeast 197 227 14,900  Level Chicago Center
07:14PM 41.6231 -90.2275 115° Southeast 201 231 14,900  Level Chicago Center
07:15PM 41.5994 -90.1594 115° Southeast 202 232 14,900  Level Chicago Center
07:16PM 41.5747 -90.0956 117° Southeast 196 226 14,900  Level Chicago Center
07:17PM 41.5456 -90.0119 115° Southeast 206 237 14,900  Level Chicago Center
07:19PM 41.4961 -89.8756 116° Southeast 202 232 14,900  Level Chicago Center
07:20PM 41.4675 -89.8117 121° Southeast 201 231 14,900  Level Chicago Center
07:22PM 41.4061 -89.6903 124° Southeast 197 227 14,900  Level Chicago Center
07:23PM 41.3761 -89.6283 123° Southeast 198 228 14,900  Level Chicago Center
07:24PM 41.3461 -89.5656 122° Southeast 201 231 14,900  Level Chicago Center
07:25PM 41.3158 -89.5006 122° Southeast 203 234 14,900  Level Chicago Center
07:26PM 41.2822 -89.4417 127° Southeast 201 231 14,900  Level Chicago Center
07:27PM 41.2486 -89.3800 126° Southeast 203 234 14,900  Level Chicago Center
07:28PM 41.2169 -89.3181 124° Southeast 204 235 14,900  Level Chicago Center
07:29PM 41.1869 -89.2536 122° Southeast 204 235 14,900 -60 Level Chicago Center
07:30PM 41.1544 -89.1750 119° Southeast 208 239 14,800 -60 Descending Chicago Center
07:31PM 41.1364 -89.1036 109° East 208 239 14,800  Level Chicago Center
07:32PM 41.1106 -89.0383 118° Southeast 202 232 14,900  Climbing Chicago Center
07:33PM 41.0842 -88.9747 119° Southeast 198 228 14,900  Level Chicago Center
07:34PM 41.0597 -88.9069 116° Southeast 205 236 14,900  Level Chicago Center
07:35PM 41.0342 -88.8364 116° Southeast 211 243 14,900  Level Chicago Center
07:36PM 41.0092 -88.7664 115° Southeast 213 245 14,900  Level Chicago Center
07:37PM 40.9814 -88.6836 114° Southeast 207 238 14,900  Level Chicago Center
07:38PM 40.9569 -88.6156 115° Southeast 207 238 14,900  Level Chicago Center
07:39PM 40.9311 -88.5486 117° Southeast 206 237 14,900  Level Chicago Center
07:40PM 40.9061 -88.4789 115° Southeast 210 242 15,000  Climbing Chicago Center
07:41PM 40.8817 -88.4094 115° Southeast 211 243 15,000  Level Chicago Center
07:43PM 40.8567 -88.3408 116° Southeast 210 242 15,000  Level Chicago Center
07:44PM 40.8311 -88.2728 116° Southeast 210 242 15,000  Level Chicago Center
07:45PM 40.7947 -88.1950 122° Southeast 209 241 15,000  Level Chicago Center
07:46PM 40.7642 -88.1317 122° Southeast 207 238 15,000  Level Chicago Center
07:47PM 40.7333 -88.0697 123° Southeast 205 236 15,000  Level Chicago Center
07:48PM 40.7117 -87.9992 112° Southeast 207 238 15,000  Level Chicago Center
07:49PM 40.6911 -87.9275 111° Southeast 211 243 15,000  Level Chicago Center
07:50PM 40.6658 -87.8633 117° Southeast 204 235 15,000  Level Chicago Center
07:51PM 40.6386 -87.7989 119° Southeast 204 235 15,000  Level Chicago Center
07:52PM 40.6147 -87.7314 115° Southeast 204 235 15,000  Level Chicago Center
07:53PM 40.5867 -87.6506 115° Southeast 202 232 15,000  Level Chicago Center
07:54PM 40.5594 -87.5833 118° Southeast 209 241 15,000  Level Chicago Center
07:55PM 40.5347 -87.5144 115° Southeast 210 242 15,000  Level Chicago Center
07:56PM 40.5114 -87.4478 115° Southeast 204 235 15,100  Climbing Chicago Center
07:57PM 40.4861 -87.3856 118° Southeast 196 226 15,100  Level Chicago Center
07:58PM 40.4614 -87.3197 116° Southeast 201 231 15,100  Level Chicago Center
07:59PM 40.4333 -87.2453 116° Southeast 206 237 15,100  Level Chicago Center
08:00PM 40.4094 -87.1808 116° Southeast 199 229 15,100  Level Chicago Center
08:01PM 40.3850 -87.1167 117° Southeast 197 227 15,100  Level Chicago Center
08:02PM 40.3600 -87.0528 117° Southeast 198 228 15,100  Level Chicago Center
08:03PM 40.3358 -86.9872 116° Southeast 201 231 15,100  Level Chicago Center
08:04PM 40.3114 -86.9206 116° Southeast 203 234 15,100  Level Chicago Center
08:05PM 40.2861 -86.8547 117° Southeast 202 232 15,100  Level Chicago Center
08:06PM 40.2608 -86.7906 117° Southeast 200 230 15,100  Level Chicago Center
08:07PM 40.2364 -86.7236 116° Southeast 203 234 15,100  Level Chicago Center
08:08PM 40.2108 -86.6600 118° Southeast 199 229 15,100  Level Chicago Center
08:09PM 40.1861 -86.5944 116° Southeast 202 232 15,100  Level Chicago Center
08:10PM 40.1622 -86.5297 116° Southeast 199 229 15,100  Level Chicago Center
08:11PM 40.1317 -86.4522 117° Southeast 200 230 15,100  Level Chicago Center
08:11PM 40.1217 -86.4267 117° Southeast 196 226 15,100  Level Indianapolis Center
08:13PM 40.0969 -86.3622 117° Southeast 197 227 15,100  Level Indianapolis Center
08:14PM 40.0722 -86.2978 117° Southeast 197 227 15,100  Level Indianapolis Center
08:15PM 40.0475 -86.2350 117° Southeast 194 223 15,100  Level Indianapolis Center
08:16PM 40.0222 -86.1703 117° Southeast 198 228 15,100 -180 Level Indianapolis Center
08:17PM 39.9914 -86.0928 117° Southeast 200 230 14,800 -480 Descending Indianapolis Center
08:18PM 39.9642 -86.0236 117° Southeast 212 244 14,200 -420 Descending Indianapolis Center
08:19PM 39.9375 -85.9519 116° Southeast 219 252 14,000 -180 Descending Indianapolis Center
08:20PM 39.9111 -85.8850 117° Southeast 209 241 13,900 -300 Descending Indianapolis Center
08:21PM 39.8836 -85.8158 117° Southeast 213 245 13,400 -540 Descending Indianapolis Center
08:22PM 39.8567 -85.7439 116° Southeast 220 253 12,900 -540 Descending Indianapolis Center
08:23PM 39.8286 -85.6722 117° Southeast 222 255 12,300 -540 Descending Indianapolis Center
08:24PM 39.8011 -85.6033 117° Southeast 217 250 11,900 -540 Descending Indianapolis Center
08:25PM 39.7736 -85.5342 117° Southeast 216 249 11,300 -660 Descending Indianapolis Center
08:25PM 39.7592 -85.4947 115° Southeast 214 246 11,000 -720 Descending Indianapolis Center
08:26PM 39.7403 -85.4508 119° Southeast 217 250 10,600 -600 Descending Indianapolis Center
08:26PM 39.7250 -85.4081 115° Southeast 219 252 10,300 -720 Descending Indianapolis Center
08:27PM 39.7128 -85.3803 120° Southeast 218 251 9,900 -900 Descending Indianapolis Center
08:27PM 39.7025 -85.3531 116° Southeast 221 254 9,600 -780 Descending Indianapolis Center
08:28PM 39.6828 -85.3094 120° Southeast 223 257 9,100 -720 Descending Indianapolis Center
08:29PM 39.6544 -85.2375 117° Southeast 223 257 8,400 -720 Descending Indianapolis Center
08:30PM 39.6289 -85.1692 116° Southeast 215 247 7,700 -720 Descending Indianapolis Center
08:31PM 39.6006 -85.1008 118° Southeast 213 245 7,000 -720 Descending Indianapolis Center
08:32PM 39.5725 -85.0375 120° Southeast 207 238 6,300 -780 Descending Indianapolis Center
08:33PM 39.5422 -84.9606 117° Southeast 201 231 5,500 -780 Descending Indianapolis Center
08:34PM 39.5200 -84.9011 116° Southeast 189 217 4,800 -720 Descending Indianapolis Center
08:35PM 39.4953 -84.8431 119° Southeast 184 212 4,100 -720 Descending Indianapolis Center
08:36PM 39.4725 -84.7839 116° Southeast 183 211 3,400 -480 Descending Indianapolis Center
08:37PM 39.4486 -84.7289 119° Southeast 183 211 3,200 -240 Descending Indianapolis Center